sensor_id;sensor_type;location;lat;lon;timestamp;P1;durP1;ratioP1;P2;durP2;ratioP2
14837;SDS011;7510;59.296;18.106;2022-07-24T00:00:29;2.13;;;0.68;;
14837;SDS011;7510;59.296;18.106;2022-07-24T00:02:54;2.88;;;1.10;;
14837;SDS011;7510;59.296;18.106;2022-07-24T00:05:19;2.28;;;0.90;;
14837;SDS011;7510;59.296;18.106;2022-07-24T00:07:44;0.50;;;0.50;;
14837;SDS011;7510;59.296;18.106;2022-07-24T00:10:10;0.60;;;0.60;;
14837;SDS011;7510;59.296;18.106;2022-07-24T00:12:35;1.20;;;0.57;;
14837;SDS011;7510;59.296;18.106;2022-07-24T00:15:01;1.67;;;0.75;;
14837;SDS011;7510;59.296;18.106;2022-07-24T00:17:26;0.73;;;0.73;;
14837;SDS011;7510;59.296;18.106;2022-07-24T00:19:51;1.63;;;0.77;;
14837;SDS011;7510;59.296;18.106;2022-07-24T00:22:16;1.30;;;0.90;;
14837;SDS011;7510;59.296;18.106;2022-07-24T00:24:41;0.85;;;0.60;;
14837;SDS011;7510;59.296;18.106;2022-07-24T00:27:07;3.65;;;0.68;;
14837;SDS011;7510;59.296;18.106;2022-07-24T00:29:32;0.60;;;0.60;;
14837;SDS011;7510;59.296;18.106;2022-07-24T00:31:57;0.68;;;0.68;;
14837;SDS011;7510;59.296;18.106;2022-07-24T00:34:22;0.60;;;0.60;;
14837;SDS011;7510;59.296;18.106;2022-07-24T00:36:48;0.75;;;0.75;;
14837;SDS011;7510;59.296;18.106;2022-07-24T00:39:13;0.75;;;0.60;;
14837;SDS011;7510;59.296;18.106;2022-07-24T00:41:39;1.08;;;0.73;;
14837;SDS011;7510;59.296;18.106;2022-07-24T00:44:11;1.80;;;0.90;;
14837;SDS011;7510;59.296;18.106;2022-07-24T00:46:37;2.72;;;0.80;;
14837;SDS011;7510;59.296;18.106;2022-07-24T00:49:03;0.50;;;0.50;;
14837;SDS011;7510;59.296;18.106;2022-07-24T00:51:29;0.60;;;0.60;;
14837;SDS011;7510;59.296;18.106;2022-07-24T00:53:54;1.55;;;0.47;;
14837;SDS011;7510;59.296;18.106;2022-07-24T00:56:20;0.88;;;0.80;;
14837;SDS011;7510;59.296;18.106;2022-07-24T00:58:46;1.70;;;0.60;;
14837;SDS011;7510;59.296;18.106;2022-07-24T01:01:12;1.98;;;0.57;;
14837;SDS011;7510;59.296;18.106;2022-07-24T01:03:37;0.77;;;0.65;;
14837;SDS011;7510;59.296;18.106;2022-07-24T01:06:02;0.80;;;0.80;;
14837;SDS011;7510;59.296;18.106;2022-07-24T01:08:28;1.63;;;0.65;;
14837;SDS011;7510;59.296;18.106;2022-07-24T01:10:53;1.33;;;0.63;;
14837;SDS011;7510;59.296;18.106;2022-07-24T01:13:18;0.63;;;0.60;;
14837;SDS011;7510;59.296;18.106;2022-07-24T01:15:45;0.73;;;0.70;;
14837;SDS011;7510;59.296;18.106;2022-07-24T01:18:11;1.65;;;0.55;;
14837;SDS011;7510;59.296;18.106;2022-07-24T01:20:39;0.57;;;0.57;;
14837;SDS011;7510;59.296;18.106;2022-07-24T01:23:05;1.85;;;0.80;;
14837;SDS011;7510;59.296;18.106;2022-07-24T01:25:30;0.65;;;0.52;;
14837;SDS011;7510;59.296;18.106;2022-07-24T01:27:56;0.93;;;0.77;;
14837;SDS011;7510;59.296;18.106;2022-07-24T01:30:22;0.80;;;0.80;;
14837;SDS011;7510;59.296;18.106;2022-07-24T01:32:47;1.85;;;0.60;;
14837;SDS011;7510;59.296;18.106;2022-07-24T01:35:13;1.40;;;1.00;;
14837;SDS011;7510;59.296;18.106;2022-07-24T01:37:38;1.05;;;0.70;;
14837;SDS011;7510;59.296;18.106;2022-07-24T01:40:03;1.77;;;0.63;;
14837;SDS011;7510;59.296;18.106;2022-07-24T01:42:29;1.88;;;0.90;;
14837;SDS011;7510;59.296;18.106;2022-07-24T01:44:54;1.45;;;0.80;;
14837;SDS011;7510;59.296;18.106;2022-07-24T01:47:19;1.50;;;0.70;;
14837;SDS011;7510;59.296;18.106;2022-07-24T01:49:44;2.30;;;0.90;;
14837;SDS011;7510;59.296;18.106;2022-07-24T01:52:10;0.60;;;0.60;;
14837;SDS011;7510;59.296;18.106;2022-07-24T01:54:35;0.80;;;0.80;;
14837;SDS011;7510;59.296;18.106;2022-07-24T01:57:00;1.77;;;0.80;;
14837;SDS011;7510;59.296;18.106;2022-07-24T01:59:25;0.93;;;0.80;;
14837;SDS011;7510;59.296;18.106;2022-07-24T02:01:51;0.95;;;0.70;;
14837;SDS011;7510;59.296;18.106;2022-07-24T02:04:16;1.98;;;1.00;;
14837;SDS011;7510;59.296;18.106;2022-07-24T02:06:41;2.03;;;1.00;;
14837;SDS011;7510;59.296;18.106;2022-07-24T02:09:06;0.70;;;0.70;;
14837;SDS011;7510;59.296;18.106;2022-07-24T02:11:32;1.00;;;0.90;;
14837;SDS011;7510;59.296;18.106;2022-07-24T02:13:57;2.58;;;0.70;;
14837;SDS011;7510;59.296;18.106;2022-07-24T02:16:25;1.23;;;1.13;;
14837;SDS011;7510;59.296;18.106;2022-07-24T02:18:50;0.63;;;0.50;;
14837;SDS011;7510;59.296;18.106;2022-07-24T02:21:15;0.80;;;0.80;;
14837;SDS011;7510;59.296;18.106;2022-07-24T02:23:40;0.70;;;0.70;;
14837;SDS011;7510;59.296;18.106;2022-07-24T02:26:06;0.70;;;0.70;;
14837;SDS011;7510;59.296;18.106;2022-07-24T02:28:31;0.82;;;0.70;;
14837;SDS011;7510;59.296;18.106;2022-07-24T02:30:56;0.80;;;0.75;;
14837;SDS011;7510;59.296;18.106;2022-07-24T02:33:21;0.88;;;0.88;;
14837;SDS011;7510;59.296;18.106;2022-07-24T02:35:46;0.93;;;0.70;;
14837;SDS011;7510;59.296;18.106;2022-07-24T02:38:12;0.75;;;0.70;;
14837;SDS011;7510;59.296;18.106;2022-07-24T02:40:37;1.10;;;1.00;;
14837;SDS011;7510;59.296;18.106;2022-07-24T02:43:03;0.82;;;0.80;;
14837;SDS011;7510;59.296;18.106;2022-07-24T02:45:28;0.70;;;0.70;;
14837;SDS011;7510;59.296;18.106;2022-07-24T02:47:54;0.70;;;0.70;;
14837;SDS011;7510;59.296;18.106;2022-07-24T02:50:20;1.27;;;1.00;;
14837;SDS011;7510;59.296;18.106;2022-07-24T02:52:46;0.82;;;0.82;;
14837;SDS011;7510;59.296;18.106;2022-07-24T02:55:11;1.23;;;0.80;;
14837;SDS011;7510;59.296;18.106;2022-07-24T02:57:37;0.75;;;0.75;;
14837;SDS011;7510;59.296;18.106;2022-07-24T03:00:04;0.68;;;0.68;;
14837;SDS011;7510;59.296;18.106;2022-07-24T03:02:31;1.35;;;0.80;;
14837;SDS011;7510;59.296;18.106;2022-07-24T03:04:56;0.95;;;0.95;;
14837;SDS011;7510;59.296;18.106;2022-07-24T03:07:21;1.85;;;1.10;;
14837;SDS011;7510;59.296;18.106;2022-07-24T03:09:46;0.80;;;0.80;;
14837;SDS011;7510;59.296;18.106;2022-07-24T03:12:12;0.80;;;0.80;;
14837;SDS011;7510;59.296;18.106;2022-07-24T03:14:37;3.08;;;1.40;;
14837;SDS011;7510;59.296;18.106;2022-07-24T03:17:03;2.53;;;1.13;;
14837;SDS011;7510;59.296;18.106;2022-07-24T03:19:28;1.10;;;1.00;;
14837;SDS011;7510;59.296;18.106;2022-07-24T03:21:54;2.40;;;1.23;;
14837;SDS011;7510;59.296;18.106;2022-07-24T03:24:19;0.90;;;0.90;;
14837;SDS011;7510;59.296;18.106;2022-07-24T03:26:44;1.00;;;1.00;;
14837;SDS011;7510;59.296;18.106;2022-07-24T03:29:09;1.10;;;1.10;;
14837;SDS011;7510;59.296;18.106;2022-07-24T03:31:35;1.15;;;1.15;;
14837;SDS011;7510;59.296;18.106;2022-07-24T03:34:00;1.23;;;1.20;;
14837;SDS011;7510;59.296;18.106;2022-07-24T03:36:26;1.25;;;1.10;;
14837;SDS011;7510;59.296;18.106;2022-07-24T03:38:51;2.33;;;1.10;;
14837;SDS011;7510;59.296;18.106;2022-07-24T03:41:16;1.30;;;1.23;;
14837;SDS011;7510;59.296;18.106;2022-07-24T03:43:42;6.22;;;1.50;;
14837;SDS011;7510;59.296;18.106;2022-07-24T03:46:07;1.23;;;1.13;;
14837;SDS011;7510;59.296;18.106;2022-07-24T03:48:32;1.65;;;1.33;;
14837;SDS011;7510;59.296;18.106;2022-07-24T03:50:57;1.30;;;1.20;;
14837;SDS011;7510;59.296;18.106;2022-07-24T03:53:23;2.10;;;1.30;;
14837;SDS011;7510;59.296;18.106;2022-07-24T03:55:48;1.48;;;1.38;;
14837;SDS011;7510;59.296;18.106;2022-07-24T03:58:13;1.60;;;1.50;;
14837;SDS011;7510;59.296;18.106;2022-07-24T04:00:39;2.13;;;1.55;;
14837;SDS011;7510;59.296;18.106;2022-07-24T04:03:04;1.67;;;1.58;;
14837;SDS011;7510;59.296;18.106;2022-07-24T04:05:29;1.65;;;1.48;;
14837;SDS011;7510;59.296;18.106;2022-07-24T04:07:54;1.08;;;1.08;;
14837;SDS011;7510;59.296;18.106;2022-07-24T04:10:20;1.55;;;1.40;;
14837;SDS011;7510;59.296;18.106;2022-07-24T04:12:46;2.15;;;1.67;;
14837;SDS011;7510;59.296;18.106;2022-07-24T04:15:11;1.73;;;1.15;;
14837;SDS011;7510;59.296;18.106;2022-07-24T04:17:37;1.45;;;1.27;;
14837;SDS011;7510;59.296;18.106;2022-07-24T04:20:02;1.45;;;1.38;;
14837;SDS011;7510;59.296;18.106;2022-07-24T04:22:28;3.53;;;1.42;;
14837;SDS011;7510;59.296;18.106;2022-07-24T04:24:53;1.50;;;1.40;;
14837;SDS011;7510;59.296;18.106;2022-07-24T04:27:18;1.40;;;1.30;;
14837;SDS011;7510;59.296;18.106;2022-07-24T04:29:43;1.55;;;1.45;;
14837;SDS011;7510;59.296;18.106;2022-07-24T04:32:08;1.00;;;1.00;;
14837;SDS011;7510;59.296;18.106;2022-07-24T04:34:34;1.10;;;1.10;;
14837;SDS011;7510;59.296;18.106;2022-07-24T04:36:59;1.98;;;1.73;;
14837;SDS011;7510;59.296;18.106;2022-07-24T04:39:24;1.50;;;1.20;;
14837;SDS011;7510;59.296;18.106;2022-07-24T04:41:49;1.17;;;1.08;;
14837;SDS011;7510;59.296;18.106;2022-07-24T04:44:14;1.33;;;1.23;;
14837;SDS011;7510;59.296;18.106;2022-07-24T04:46:39;1.08;;;1.08;;
14837;SDS011;7510;59.296;18.106;2022-07-24T04:49:05;0.98;;;0.98;;
14837;SDS011;7510;59.296;18.106;2022-07-24T04:51:30;0.93;;;0.93;;
14837;SDS011;7510;59.296;18.106;2022-07-24T04:53:55;0.95;;;0.95;;
14837;SDS011;7510;59.296;18.106;2022-07-24T04:56:21;3.03;;;1.20;;
14837;SDS011;7510;59.296;18.106;2022-07-24T04:58:46;1.60;;;1.05;;
14837;SDS011;7510;59.296;18.106;2022-07-24T05:01:12;1.77;;;1.00;;
14837;SDS011;7510;59.296;18.106;2022-07-24T05:03:37;1.10;;;1.10;;
14837;SDS011;7510;59.296;18.106;2022-07-24T05:06:02;1.00;;;0.85;;
14837;SDS011;7510;59.296;18.106;2022-07-24T05:08:28;2.17;;;0.90;;
14837;SDS011;7510;59.296;18.106;2022-07-24T05:10:53;0.90;;;0.90;;
14837;SDS011;7510;59.296;18.106;2022-07-24T05:13:18;0.98;;;0.90;;
14837;SDS011;7510;59.296;18.106;2022-07-24T05:15:43;0.95;;;0.77;;
14837;SDS011;7510;59.296;18.106;2022-07-24T05:18:08;1.13;;;1.00;;
14837;SDS011;7510;59.296;18.106;2022-07-24T05:20:34;0.83;;;0.83;;
14837;SDS011;7510;59.296;18.106;2022-07-24T05:22:59;1.00;;;0.90;;
14837;SDS011;7510;59.296;18.106;2022-07-24T05:25:24;1.80;;;0.95;;
14837;SDS011;7510;59.296;18.106;2022-07-24T05:27:50;0.95;;;0.95;;
14837;SDS011;7510;59.296;18.106;2022-07-24T05:30:15;1.55;;;0.90;;
14837;SDS011;7510;59.296;18.106;2022-07-24T05:32:40;0.80;;;0.80;;
14837;SDS011;7510;59.296;18.106;2022-07-24T05:35:05;1.17;;;1.10;;
14837;SDS011;7510;59.296;18.106;2022-07-24T05:37:31;1.15;;;0.80;;
14837;SDS011;7510;59.296;18.106;2022-07-24T05:39:56;1.02;;;1.00;;
14837;SDS011;7510;59.296;18.106;2022-07-24T05:42:21;1.10;;;1.10;;
14837;SDS011;7510;59.296;18.106;2022-07-24T05:44:46;1.63;;;1.00;;
14837;SDS011;7510;59.296;18.106;2022-07-24T05:47:12;1.15;;;1.05;;
14837;SDS011;7510;59.296;18.106;2022-07-24T05:49:37;2.33;;;1.00;;
14837;SDS011;7510;59.296;18.106;2022-07-24T05:52:02;0.88;;;0.88;;
14837;SDS011;7510;59.296;18.106;2022-07-24T05:54:27;0.90;;;0.90;;
14837;SDS011;7510;59.296;18.106;2022-07-24T05:56:53;1.48;;;1.38;;
14837;SDS011;7510;59.296;18.106;2022-07-24T05:59:18;0.95;;;0.95;;
14837;SDS011;7510;59.296;18.106;2022-07-24T06:01:43;1.53;;;0.83;;
14837;SDS011;7510;59.296;18.106;2022-07-24T06:04:08;2.00;;;1.30;;
14837;SDS011;7510;59.296;18.106;2022-07-24T06:06:34;0.93;;;0.70;;
14837;SDS011;7510;59.296;18.106;2022-07-24T06:08:59;1.10;;;1.00;;
14837;SDS011;7510;59.296;18.106;2022-07-24T06:11:24;0.93;;;0.75;;
14837;SDS011;7510;59.296;18.106;2022-07-24T06:13:49;1.13;;;0.77;;
14837;SDS011;7510;59.296;18.106;2022-07-24T06:16:15;0.90;;;0.90;;
14837;SDS011;7510;59.296;18.106;2022-07-24T06:18:40;0.63;;;0.63;;
14837;SDS011;7510;59.296;18.106;2022-07-24T06:21:06;0.70;;;0.70;;
14837;SDS011;7510;59.296;18.106;2022-07-24T06:23:31;0.60;;;0.60;;
14837;SDS011;7510;59.296;18.106;2022-07-24T06:25:57;0.80;;;0.80;;
14837;SDS011;7510;59.296;18.106;2022-07-24T06:28:22;1.10;;;1.00;;
14837;SDS011;7510;59.296;18.106;2022-07-24T06:30:48;0.70;;;0.70;;
14837;SDS011;7510;59.296;18.106;2022-07-24T06:33:13;0.95;;;0.90;;
14837;SDS011;7510;59.296;18.106;2022-07-24T06:35:38;0.60;;;0.60;;
14837;SDS011;7510;59.296;18.106;2022-07-24T06:38:03;0.82;;;0.70;;
14837;SDS011;7510;59.296;18.106;2022-07-24T06:40:29;0.80;;;0.80;;
14837;SDS011;7510;59.296;18.106;2022-07-24T06:42:54;0.80;;;0.80;;
14837;SDS011;7510;59.296;18.106;2022-07-24T06:45:19;1.83;;;0.93;;
14837;SDS011;7510;59.296;18.106;2022-07-24T06:47:45;0.80;;;0.80;;
14837;SDS011;7510;59.296;18.106;2022-07-24T06:50:10;0.68;;;0.68;;
14837;SDS011;7510;59.296;18.106;2022-07-24T06:52:36;0.90;;;0.90;;
14837;SDS011;7510;59.296;18.106;2022-07-24T06:55:01;0.70;;;0.70;;
14837;SDS011;7510;59.296;18.106;2022-07-24T06:57:27;1.02;;;0.70;;
14837;SDS011;7510;59.296;18.106;2022-07-24T06:59:52;0.70;;;0.70;;
14837;SDS011;7510;59.296;18.106;2022-07-24T07:02:18;1.20;;;0.80;;
14837;SDS011;7510;59.296;18.106;2022-07-24T07:04:43;0.63;;;0.50;;
14837;SDS011;7510;59.296;18.106;2022-07-24T07:07:08;0.70;;;0.70;;
14837;SDS011;7510;59.296;18.106;2022-07-24T07:09:33;4.43;;;0.80;;
14837;SDS011;7510;59.296;18.106;2022-07-24T07:12:00;0.85;;;0.70;;
14837;SDS011;7510;59.296;18.106;2022-07-24T07:14:25;0.53;;;0.47;;
14837;SDS011;7510;59.296;18.106;2022-07-24T07:16:51;1.50;;;0.67;;
14837;SDS011;7510;59.296;18.106;2022-07-24T07:19:16;0.87;;;0.63;;
14837;SDS011;7510;59.296;18.106;2022-07-24T07:21:41;0.57;;;0.50;;
14837;SDS011;7510;59.296;18.106;2022-07-24T07:24:06;1.48;;;0.52;;
14837;SDS011;7510;59.296;18.106;2022-07-24T07:26:32;0.85;;;0.70;;
14837;SDS011;7510;59.296;18.106;2022-07-24T07:28:57;0.63;;;0.50;;
14837;SDS011;7510;59.296;18.106;2022-07-24T07:31:22;1.17;;;0.50;;
14837;SDS011;7510;59.296;18.106;2022-07-24T07:33:49;0.40;;;0.40;;
14837;SDS011;7510;59.296;18.106;2022-07-24T07:36:14;0.50;;;0.50;;
14837;SDS011;7510;59.296;18.106;2022-07-24T07:38:39;0.98;;;0.55;;
14837;SDS011;7510;59.296;18.106;2022-07-24T07:41:06;1.50;;;0.60;;
14837;SDS011;7510;59.296;18.106;2022-07-24T07:43:31;0.70;;;0.70;;
14837;SDS011;7510;59.296;18.106;2022-07-24T07:45:57;0.63;;;0.63;;
14837;SDS011;7510;59.296;18.106;2022-07-24T07:48:22;0.50;;;0.50;;
14837;SDS011;7510;59.296;18.106;2022-07-24T07:50:47;0.98;;;0.60;;
14837;SDS011;7510;59.296;18.106;2022-07-24T07:53:13;1.30;;;0.80;;
14837;SDS011;7510;59.296;18.106;2022-07-24T07:55:38;0.80;;;0.53;;
14837;SDS011;7510;59.296;18.106;2022-07-24T07:58:03;0.85;;;0.85;;
14837;SDS011;7510;59.296;18.106;2022-07-24T08:00:30;0.93;;;0.60;;
14837;SDS011;7510;59.296;18.106;2022-07-24T08:02:55;1.45;;;0.70;;
14837;SDS011;7510;59.296;18.106;2022-07-24T08:05:21;1.38;;;0.60;;
14837;SDS011;7510;59.296;18.106;2022-07-24T08:07:46;1.88;;;0.73;;
14837;SDS011;7510;59.296;18.106;2022-07-24T08:10:11;0.60;;;0.40;;
14837;SDS011;7510;59.296;18.106;2022-07-24T08:12:36;0.50;;;0.50;;
14837;SDS011;7510;59.296;18.106;2022-07-24T08:15:02;0.55;;;0.55;;
14837;SDS011;7510;59.296;18.106;2022-07-24T08:17:27;0.60;;;0.60;;
14837;SDS011;7510;59.296;18.106;2022-07-24T08:19:52;0.60;;;0.60;;
14837;SDS011;7510;59.296;18.106;2022-07-24T08:22:17;0.67;;;0.53;;
14837;SDS011;7510;59.296;18.106;2022-07-24T08:24:43;1.90;;;0.60;;
14837;SDS011;7510;59.296;18.106;2022-07-24T08:27:08;0.93;;;0.73;;
14837;SDS011;7510;59.296;18.106;2022-07-24T08:29:33;0.50;;;0.50;;
14837;SDS011;7510;59.296;18.106;2022-07-24T08:31:58;0.85;;;0.55;;
14837;SDS011;7510;59.296;18.106;2022-07-24T08:34:23;0.70;;;0.70;;
14837;SDS011;7510;59.296;18.106;2022-07-24T08:36:49;0.57;;;0.57;;
14837;SDS011;7510;59.296;18.106;2022-07-24T08:39:14;0.50;;;0.50;;
14837;SDS011;7510;59.296;18.106;2022-07-24T08:41:40;1.63;;;0.68;;
14837;SDS011;7510;59.296;18.106;2022-07-24T08:44:05;0.55;;;0.55;;
14837;SDS011;7510;59.296;18.106;2022-07-24T08:46:31;0.60;;;0.57;;
14837;SDS011;7510;59.296;18.106;2022-07-24T08:48:56;0.60;;;0.60;;
14837;SDS011;7510;59.296;18.106;2022-07-24T08:51:22;0.98;;;0.50;;
14837;SDS011;7510;59.296;18.106;2022-07-24T08:53:47;0.50;;;0.50;;
14837;SDS011;7510;59.296;18.106;2022-07-24T08:56:14;1.67;;;0.60;;
14837;SDS011;7510;59.296;18.106;2022-07-24T08:58:40;0.55;;;0.55;;
14837;SDS011;7510;59.296;18.106;2022-07-24T09:01:05;1.63;;;0.70;;
14837;SDS011;7510;59.296;18.106;2022-07-24T09:03:38;1.42;;;0.55;;
14837;SDS011;7510;59.296;18.106;2022-07-24T09:06:03;0.55;;;0.55;;
14837;SDS011;7510;59.296;18.106;2022-07-24T09:08:32;1.30;;;0.85;;
14837;SDS011;7510;59.296;18.106;2022-07-24T09:10:58;2.78;;;0.80;;
14837;SDS011;7510;59.296;18.106;2022-07-24T09:13:24;1.38;;;0.75;;
14837;SDS011;7510;59.296;18.106;2022-07-24T09:15:49;0.98;;;0.82;;
14837;SDS011;7510;59.296;18.106;2022-07-24T09:18:24;1.98;;;0.70;;
14837;SDS011;7510;59.296;18.106;2022-07-24T09:20:50;1.52;;;0.70;;
14837;SDS011;7510;59.296;18.106;2022-07-24T09:23:18;0.75;;;0.70;;
14837;SDS011;7510;59.296;18.106;2022-07-24T09:25:48;1.13;;;0.80;;
14837;SDS011;7510;59.296;18.106;2022-07-24T09:28:14;1.08;;;0.85;;
14837;SDS011;7510;59.296;18.106;2022-07-24T09:30:42;2.00;;;0.80;;
14837;SDS011;7510;59.296;18.106;2022-07-24T09:38:12;0.63;;;0.63;;
14837;SDS011;7510;59.296;18.106;2022-07-24T09:40:39;1.00;;;0.65;;
14837;SDS011;7510;59.296;18.106;2022-07-24T09:45:51;0.70;;;0.55;;
14837;SDS011;7510;59.296;18.106;2022-07-24T09:48:18;0.80;;;0.80;;
14837;SDS011;7510;59.296;18.106;2022-07-24T09:50:49;0.60;;;0.60;;
14837;SDS011;7510;59.296;18.106;2022-07-24T09:53:14;1.10;;;0.80;;
14837;SDS011;7510;59.296;18.106;2022-07-24T09:55:40;0.73;;;0.73;;
14837;SDS011;7510;59.296;18.106;2022-07-24T09:58:11;0.98;;;0.88;;
14837;SDS011;7510;59.296;18.106;2022-07-24T10:00:41;0.80;;;0.80;;
14837;SDS011;7510;59.296;18.106;2022-07-24T10:03:07;0.80;;;0.80;;
14837;SDS011;7510;59.296;18.106;2022-07-24T10:05:38;2.05;;;0.60;;
14837;SDS011;7510;59.296;18.106;2022-07-24T10:08:05;1.10;;;0.90;;
14837;SDS011;7510;59.296;18.106;2022-07-24T10:10:31;1.48;;;0.80;;
14837;SDS011;7510;59.296;18.106;2022-07-24T10:12:57;0.75;;;0.75;;
14837;SDS011;7510;59.296;18.106;2022-07-24T10:15:23;1.10;;;0.60;;
14837;SDS011;7510;59.296;18.106;2022-07-24T10:18:03;3.45;;;0.90;;
14837;SDS011;7510;59.296;18.106;2022-07-24T10:20:38;1.58;;;0.85;;
14837;SDS011;7510;59.296;18.106;2022-07-24T10:23:04;1.75;;;0.60;;
14837;SDS011;7510;59.296;18.106;2022-07-24T10:25:36;0.68;;;0.57;;
14837;SDS011;7510;59.296;18.106;2022-07-24T10:28:03;1.05;;;0.82;;
14837;SDS011;7510;59.296;18.106;2022-07-24T10:30:30;2.05;;;0.70;;
14837;SDS011;7510;59.296;18.106;2022-07-24T10:32:55;0.70;;;0.63;;
14837;SDS011;7510;59.296;18.106;2022-07-24T10:35:22;0.60;;;0.60;;
14837;SDS011;7510;59.296;18.106;2022-07-24T10:45:34;0.55;;;0.50;;
14837;SDS011;7510;59.296;18.106;2022-07-24T10:53:23;2.15;;;0.70;;
14837;SDS011;7510;59.296;18.106;2022-07-24T10:55:48;0.70;;;0.70;;
14837;SDS011;7510;59.296;18.106;2022-07-24T10:58:14;0.60;;;0.60;;
14837;SDS011;7510;59.296;18.106;2022-07-24T11:00:44;1.95;;;0.60;;
14837;SDS011;7510;59.296;18.106;2022-07-24T11:03:20;0.98;;;0.55;;
14837;SDS011;7510;59.296;18.106;2022-07-24T11:08:27;0.65;;;0.55;;
14837;SDS011;7510;59.296;18.106;2022-07-24T11:11:04;0.90;;;0.90;;
14837;SDS011;7510;59.296;18.106;2022-07-24T11:16:33;0.57;;;0.57;;
14837;SDS011;7510;59.296;18.106;2022-07-24T11:21:40;0.82;;;0.77;;
14837;SDS011;7510;59.296;18.106;2022-07-24T11:26:39;2.75;;;0.77;;
14837;SDS011;7510;59.296;18.106;2022-07-24T11:31:44;1.25;;;0.90;;
14837;SDS011;7510;59.296;18.106;2022-07-24T11:34:13;0.60;;;0.60;;
14837;SDS011;7510;59.296;18.106;2022-07-24T11:36:40;0.50;;;0.50;;
14837;SDS011;7510;59.296;18.106;2022-07-24T11:39:10;0.85;;;0.68;;
14837;SDS011;7510;59.296;18.106;2022-07-24T11:41:43;0.73;;;0.73;;
14837;SDS011;7510;59.296;18.106;2022-07-24T11:44:09;0.70;;;0.70;;
14837;SDS011;7510;59.296;18.106;2022-07-24T11:46:35;1.48;;;0.80;;
14837;SDS011;7510;59.296;18.106;2022-07-24T11:49:10;1.55;;;0.73;;
14837;SDS011;7510;59.296;18.106;2022-07-24T11:51:45;0.70;;;0.70;;
14837;SDS011;7510;59.296;18.106;2022-07-24T11:54:12;0.80;;;0.80;;
14837;SDS011;7510;59.296;18.106;2022-07-24T11:56:38;0.57;;;0.43;;
14837;SDS011;7510;59.296;18.106;2022-07-24T11:59:03;0.73;;;0.73;;
14837;SDS011;7510;59.296;18.106;2022-07-24T12:01:29;0.50;;;0.50;;
14837;SDS011;7510;59.296;18.106;2022-07-24T12:03:56;1.45;;;0.80;;
14837;SDS011;7510;59.296;18.106;2022-07-24T12:06:22;1.90;;;0.77;;
14837;SDS011;7510;59.296;18.106;2022-07-24T12:08:49;0.50;;;0.50;;
14837;SDS011;7510;59.296;18.106;2022-07-24T12:11:21;0.50;;;0.50;;
14837;SDS011;7510;59.296;18.106;2022-07-24T12:14:17;0.77;;;0.60;;
14837;SDS011;7510;59.296;18.106;2022-07-24T12:16:43;0.90;;;0.63;;
14837;SDS011;7510;59.296;18.106;2022-07-24T12:19:16;0.75;;;0.70;;
14837;SDS011;7510;59.296;18.106;2022-07-24T12:21:43;1.15;;;0.82;;
14837;SDS011;7510;59.296;18.106;2022-07-24T12:24:10;1.00;;;0.47;;
14837;SDS011;7510;59.296;18.106;2022-07-24T12:26:47;1.25;;;0.80;;
14837;SDS011;7510;59.296;18.106;2022-07-24T12:29:13;1.73;;;1.08;;
14837;SDS011;7510;59.296;18.106;2022-07-24T12:31:38;0.50;;;0.50;;
14837;SDS011;7510;59.296;18.106;2022-07-24T12:34:03;0.63;;;0.60;;
14837;SDS011;7510;59.296;18.106;2022-07-24T12:36:29;0.68;;;0.68;;
14837;SDS011;7510;59.296;18.106;2022-07-24T12:38:56;1.92;;;0.70;;
14837;SDS011;7510;59.296;18.106;2022-07-24T12:41:22;0.60;;;0.60;;
14837;SDS011;7510;59.296;18.106;2022-07-24T12:43:56;0.50;;;0.50;;
14837;SDS011;7510;59.296;18.106;2022-07-24T12:46:32;0.70;;;0.63;;
14837;SDS011;7510;59.296;18.106;2022-07-24T12:51:23;0.82;;;0.77;;
14837;SDS011;7510;59.296;18.106;2022-07-24T12:53:51;2.00;;;0.73;;
14837;SDS011;7510;59.296;18.106;2022-07-24T12:56:18;1.38;;;0.65;;
14837;SDS011;7510;59.296;18.106;2022-07-24T13:01:22;0.52;;;0.52;;
14837;SDS011;7510;59.296;18.106;2022-07-24T13:03:53;0.60;;;0.60;;
14837;SDS011;7510;59.296;18.106;2022-07-24T13:06:18;1.75;;;0.70;;
14837;SDS011;7510;59.296;18.106;2022-07-24T13:08:44;0.60;;;0.60;;
14837;SDS011;7510;59.296;18.106;2022-07-24T13:11:09;0.95;;;0.60;;
14837;SDS011;7510;59.296;18.106;2022-07-24T13:13:34;0.50;;;0.50;;
14837;SDS011;7510;59.296;18.106;2022-07-24T13:16:00;0.80;;;0.80;;
14837;SDS011;7510;59.296;18.106;2022-07-24T13:18:26;0.80;;;0.80;;
14837;SDS011;7510;59.296;18.106;2022-07-24T13:20:51;0.70;;;0.70;;
14837;SDS011;7510;59.296;18.106;2022-07-24T13:23:17;1.13;;;1.13;;
14837;SDS011;7510;59.296;18.106;2022-07-24T13:25:42;0.88;;;0.88;;
14837;SDS011;7510;59.296;18.106;2022-07-24T13:28:13;0.75;;;0.73;;
14837;SDS011;7510;59.296;18.106;2022-07-24T13:30:38;2.05;;;0.50;;
14837;SDS011;7510;59.296;18.106;2022-07-24T13:33:03;0.80;;;0.80;;
14837;SDS011;7510;59.296;18.106;2022-07-24T13:35:28;0.73;;;0.68;;
14837;SDS011;7510;59.296;18.106;2022-07-24T13:37:55;1.60;;;0.70;;
14837;SDS011;7510;59.296;18.106;2022-07-24T13:40:20;1.63;;;0.80;;
14837;SDS011;7510;59.296;18.106;2022-07-24T13:42:46;0.70;;;0.70;;
14837;SDS011;7510;59.296;18.106;2022-07-24T13:45:11;0.80;;;0.80;;
14837;SDS011;7510;59.296;18.106;2022-07-24T13:47:36;0.50;;;0.50;;
14837;SDS011;7510;59.296;18.106;2022-07-24T13:50:02;0.70;;;0.70;;
14837;SDS011;7510;59.296;18.106;2022-07-24T13:52:27;0.77;;;0.60;;
14837;SDS011;7510;59.296;18.106;2022-07-24T13:54:53;0.52;;;0.52;;
14837;SDS011;7510;59.296;18.106;2022-07-24T13:57:18;1.27;;;0.60;;
14837;SDS011;7510;59.296;18.106;2022-07-24T13:59:44;0.82;;;0.60;;
14837;SDS011;7510;59.296;18.106;2022-07-24T14:02:09;0.57;;;0.57;;
14837;SDS011;7510;59.296;18.106;2022-07-24T14:04:34;0.68;;;0.68;;
14837;SDS011;7510;59.296;18.106;2022-07-24T14:07:00;4.05;;;0.82;;
14837;SDS011;7510;59.296;18.106;2022-07-24T14:09:26;0.73;;;0.50;;
14837;SDS011;7510;59.296;18.106;2022-07-24T14:11:53;0.80;;;0.80;;
14837;SDS011;7510;59.296;18.106;2022-07-24T14:14:18;1.27;;;0.75;;
14837;SDS011;7510;59.296;18.106;2022-07-24T14:16:44;1.50;;;1.08;;
14837;SDS011;7510;59.296;18.106;2022-07-24T14:19:09;0.70;;;0.70;;
14837;SDS011;7510;59.296;18.106;2022-07-24T14:21:35;0.73;;;0.73;;
14837;SDS011;7510;59.296;18.106;2022-07-24T14:24:02;1.02;;;1.00;;
14837;SDS011;7510;59.296;18.106;2022-07-24T14:26:27;2.70;;;0.80;;
14837;SDS011;7510;59.296;18.106;2022-07-24T14:28:53;1.00;;;0.73;;
14837;SDS011;7510;59.296;18.106;2022-07-24T14:31:18;1.98;;;0.80;;
14837;SDS011;7510;59.296;18.106;2022-07-24T14:33:43;0.60;;;0.60;;
14837;SDS011;7510;59.296;18.106;2022-07-24T14:36:09;0.60;;;0.60;;
14837;SDS011;7510;59.296;18.106;2022-07-24T14:38:34;0.75;;;0.70;;
14837;SDS011;7510;59.296;18.106;2022-07-24T14:41:00;4.57;;;0.50;;
14837;SDS011;7510;59.296;18.106;2022-07-24T14:43:26;0.70;;;0.70;;
14837;SDS011;7510;59.296;18.106;2022-07-24T14:45:51;1.23;;;0.70;;
14837;SDS011;7510;59.296;18.106;2022-07-24T14:48:17;2.25;;;0.63;;
14837;SDS011;7510;59.296;18.106;2022-07-24T14:50:42;0.60;;;0.60;;
14837;SDS011;7510;59.296;18.106;2022-07-24T14:53:08;1.48;;;0.60;;
14837;SDS011;7510;59.296;18.106;2022-07-24T14:55:33;0.70;;;0.70;;
14837;SDS011;7510;59.296;18.106;2022-07-24T14:57:59;1.88;;;0.52;;
14837;SDS011;7510;59.296;18.106;2022-07-24T15:00:24;0.60;;;0.60;;
14837;SDS011;7510;59.296;18.106;2022-07-24T15:02:49;0.65;;;0.65;;
14837;SDS011;7510;59.296;18.106;2022-07-24T15:05:14;1.00;;;0.80;;
14837;SDS011;7510;59.296;18.106;2022-07-24T15:07:39;0.50;;;0.50;;
14837;SDS011;7510;59.296;18.106;2022-07-24T15:10:05;0.88;;;0.88;;
14837;SDS011;7510;59.296;18.106;2022-07-24T15:12:30;0.90;;;0.90;;
14837;SDS011;7510;59.296;18.106;2022-07-24T15:14:55;0.65;;;0.60;;
14837;SDS011;7510;59.296;18.106;2022-07-24T15:17:20;0.63;;;0.63;;
14837;SDS011;7510;59.296;18.106;2022-07-24T15:19:46;1.02;;;0.60;;